createdAt,value
2022-10-19T00:00:00.347Z,0
2022-10-19T00:05:00.283Z,0
2022-10-19T00:10:00.327Z,0
2022-10-19T00:15:00.424Z,0
2022-10-19T00:20:00.251Z,0
2022-10-19T00:25:00.280Z,0
2022-10-19T00:30:00.327Z,0
2022-10-19T00:35:00.251Z,0
2022-10-19T00:40:00.301Z,0
2022-10-19T00:45:00.250Z,0
2022-10-19T00:50:00.289Z,0
2022-10-19T00:55:00.264Z,0
2022-10-19T01:00:00.313Z,0
2022-10-19T01:05:00.280Z,0
2022-10-19T01:10:00.248Z,0
2022-10-19T01:15:00.275Z,0
2022-10-19T01:20:00.251Z,0
2022-10-19T01:25:00.276Z,0
2022-10-19T01:30:00.267Z,0
2022-10-19T01:35:00.286Z,0
2022-10-19T01:40:00.265Z,0
2022-10-19T01:45:00.274Z,0
2022-10-19T01:50:00.262Z,0
2022-10-19T01:55:00.300Z,0
2022-10-19T02:00:00.298Z,0
2022-10-19T02:05:00.272Z,0
2022-10-19T02:10:00.339Z,0
2022-10-19T02:15:00.283Z,0
2022-10-19T02:20:00.251Z,0
2022-10-19T02:25:00.271Z,0
2022-10-19T02:30:00.265Z,0
2022-10-19T02:35:00.279Z,0
2022-10-19T02:40:00.297Z,0
2022-10-19T02:45:00.255Z,0
2022-10-19T02:50:00.290Z,0
2022-10-19T02:55:00.301Z,0
2022-10-19T03:00:00.421Z,0
2022-10-19T03:05:00.285Z,0
2022-10-19T03:10:00.448Z,0
2022-10-19T03:15:00.279Z,0
2022-10-19T03:20:00.347Z,0
2022-10-19T03:25:00.270Z,0
2022-10-19T03:30:00.309Z,0
2022-10-19T03:35:00.265Z,0
2022-10-19T03:40:00.262Z,0
2022-10-19T03:45:00.276Z,0
2022-10-19T03:50:00.250Z,0
2022-10-19T03:55:00.264Z,0
2022-10-19T04:00:00.332Z,0
2022-10-19T04:05:00.273Z,0
2022-10-19T04:10:00.279Z,0
2022-10-19T04:15:00.289Z,0
2022-10-19T04:20:01.787Z,0
2022-10-19T04:25:00.283Z,0
2022-10-19T04:30:00.280Z,0
2022-10-19T04:35:00.331Z,0
2022-10-19T04:40:00.566Z,0
2022-10-19T04:45:00.306Z,0
2022-10-19T04:50:00.279Z,0
2022-10-19T04:55:00.266Z,0
2022-10-19T05:00:00.343Z,0
2022-10-19T05:05:00.268Z,0
2022-10-19T05:10:00.287Z,0
2022-10-19T05:15:00.251Z,0
2022-10-19T05:20:00.251Z,0
2022-10-19T05:25:00.336Z,0
2022-10-19T05:30:00.304Z,0
2022-10-19T05:35:00.298Z,0
2022-10-19T05:40:00.287Z,0
2022-10-19T05:45:00.278Z,9
2022-10-19T05:50:00.281Z,23
2022-10-19T05:55:00.321Z,44
2022-10-19T06:00:00.326Z,73
2022-10-19T06:05:00.286Z,120
2022-10-19T06:10:00.532Z,168
2022-10-19T06:15:03.337Z,233
2022-10-19T06:20:00.302Z,325
2022-10-19T06:25:00.308Z,452
2022-10-19T06:30:00.316Z,508
2022-10-19T06:35:00.421Z,729
2022-10-19T06:40:04.729Z,1048
2022-10-19T06:45:00.496Z,1181
2022-10-19T06:50:00.285Z,1181
2022-10-19T06:55:00.282Z,1492
2022-10-19T07:00:00.737Z,2146
2022-10-19T07:05:04.613Z,2166
2022-10-19T07:10:00.321Z,2166
2022-10-19T07:15:00.330Z,2166
2022-10-19T07:20:00.279Z,2166
2022-10-19T07:25:00.314Z,2736
2022-10-19T07:30:00.291Z,2417
2022-10-19T07:35:00.318Z,2720
2022-10-19T07:40:00.304Z,3067
2022-10-19T07:45:00.297Z,3891
2022-10-19T07:50:00.276Z,4947
2022-10-19T07:55:00.366Z,7170
2022-10-19T08:00:00.361Z,6339
2022-10-19T08:05:03.979Z,6339
2022-10-19T08:10:00.307Z,7183
2022-10-19T08:15:00.281Z,7183
2022-10-19T08:20:00.304Z,6314
2022-10-19T08:25:00.312Z,6314
2022-10-19T08:30:00.572Z,6314
2022-10-19T08:35:00.281Z,8580
2022-10-19T08:40:00.304Z,11482
2022-10-19T08:45:00.297Z,7621
2022-10-19T08:50:00.330Z,6772
2022-10-19T08:55:00.389Z,6838
2022-10-19T09:00:00.342Z,8306
2022-10-19T09:05:00.311Z,8622
2022-10-19T09:10:00.297Z,16527
2022-10-19T09:15:00.321Z,20773
2022-10-19T09:20:00.280Z,15360
2022-10-19T09:25:00.287Z,21091
2022-10-19T09:30:00.280Z,38371
2022-10-19T09:35:00.265Z,44249
2022-10-19T09:40:00.315Z,44249
2022-10-19T09:45:00.291Z,44249
2022-10-19T09:50:00.287Z,45806
2022-10-19T09:55:00.258Z,39165
2022-10-19T10:00:00.318Z,39165
2022-10-19T10:05:00.312Z,41899
2022-10-19T10:10:00.292Z,42286
2022-10-19T10:15:00.298Z,26412
2022-10-19T10:20:00.298Z,35011
2022-10-19T10:25:00.296Z,35975
2022-10-19T10:30:00.417Z,7854
2022-10-19T10:35:01.480Z,14498
2022-10-19T10:40:03.615Z,8794
2022-10-19T10:45:00.264Z,8989
2022-10-19T11:30:00.359Z,8884
2022-10-19T11:35:00.302Z,8884
2022-10-19T11:45:01.452Z,6987
2022-10-19T11:50:00.618Z,6987
2022-10-19T11:55:00.561Z,6219
2022-10-19T12:00:08.646Z,6219
2022-10-19T12:05:00.340Z,6219
2022-10-19T12:10:00.432Z,5517
2022-10-19T12:15:00.266Z,5517
2022-10-19T12:20:00.347Z,4908
2022-10-19T12:25:00.321Z,4908
2022-10-19T12:30:00.322Z,4908
2022-10-19T12:35:00.412Z,4517
2022-10-19T12:40:00.277Z,4517
2022-10-19T12:45:00.273Z,4517
2022-10-19T12:50:00.288Z,4356
2022-10-19T12:55:00.263Z,4356
2022-10-19T13:00:00.941Z,4356
2022-10-19T13:05:00.264Z,4356
2022-10-19T13:10:00.287Z,4356
2022-10-19T13:15:00.256Z,4356
2022-10-19T13:20:00.251Z,4356
2022-10-19T13:25:03.602Z,4356
2022-10-19T13:30:01.439Z,3952
2022-10-19T13:35:00.292Z,3952
2022-10-19T13:40:00.363Z,3873
2022-10-19T13:45:00.335Z,3873
2022-10-19T13:50:00.281Z,3873
2022-10-19T13:55:00.326Z,3873
2022-10-19T14:00:00.857Z,3873
2022-10-19T14:05:00.354Z,3440
2022-10-19T14:10:01.203Z,3440
2022-10-19T14:15:00.494Z,3440
2022-10-19T14:20:01.001Z,3440
2022-10-19T14:25:00.280Z,3115
2022-10-19T14:30:00.276Z,3115
2022-10-19T14:35:00.367Z,3061
2022-10-19T14:40:00.294Z,3061
2022-10-19T14:45:00.282Z,2724
2022-10-19T14:50:00.265Z,2724
2022-10-19T14:55:00.262Z,2417
2022-10-19T15:00:00.342Z,2417
2022-10-19T15:05:00.896Z,2417
2022-10-19T15:10:00.389Z,2417
2022-10-19T15:15:00.240Z,2147
2022-10-19T15:20:00.526Z,1908
2022-10-19T15:25:00.295Z,1908
2022-10-19T15:30:00.332Z,1695
2022-10-19T15:35:00.306Z,1695
2022-10-19T15:40:00.366Z,1340
2022-10-19T15:45:00.346Z,1192
2022-10-19T15:50:00.381Z,938
2022-10-19T15:55:00.489Z,739
2022-10-19T16:00:00.615Z,657
2022-10-19T16:05:00.385Z,518
2022-10-19T16:10:00.384Z,439
2022-10-19T16:15:00.339Z,317
2022-10-19T16:20:00.326Z,227
2022-10-19T16:25:00.262Z,162
2022-10-19T16:30:00.360Z,137
2022-10-19T16:35:00.265Z,83
2022-10-19T16:40:00.535Z,50
2022-10-19T16:45:00.371Z,22
2022-10-19T16:50:00.400Z,15
2022-10-19T16:55:00.342Z,8
2022-10-19T17:00:00.479Z,8
2022-10-19T17:05:00.297Z,0
2022-10-19T17:10:00.470Z,0
2022-10-19T17:15:29.907Z,0
2022-10-19T17:20:00.305Z,0
2022-10-19T17:25:00.352Z,0
2022-10-19T17:30:00.611Z,0
2022-10-19T17:35:00.847Z,0
2022-10-19T17:40:00.367Z,0
2022-10-19T17:45:00.500Z,0
2022-10-19T17:50:00.323Z,0
2022-10-19T17:55:12.114Z,0
2022-10-19T18:00:01.373Z,0
2022-10-19T18:05:00.267Z,0
2022-10-19T18:10:00.810Z,0
2022-10-19T18:15:00.278Z,0
2022-10-19T18:20:01.665Z,0
2022-10-19T18:25:00.576Z,0
2022-10-19T18:30:00.373Z,0
2022-10-19T18:35:00.841Z,0
2022-10-19T18:40:00.277Z,0
2022-10-19T18:45:00.459Z,0
2022-10-19T18:50:00.286Z,0
2022-10-19T18:55:00.266Z,0
2022-10-19T19:00:00.272Z,0
2022-10-19T19:05:00.312Z,0
2022-10-19T19:10:00.233Z,0
2022-10-19T19:15:00.614Z,0
2022-10-19T19:20:00.223Z,0
2022-10-19T19:25:00.369Z,0
2022-10-19T19:30:00.239Z,0
2022-10-19T19:35:00.275Z,0
2022-10-19T19:40:00.242Z,0
2022-10-19T19:45:00.248Z,0
2022-10-19T19:50:00.288Z,0
2022-10-19T20:00:00.426Z,0
2022-10-19T20:05:00.278Z,0
2022-10-19T20:10:00.515Z,0
2022-10-19T20:15:00.291Z,0
2022-10-19T20:20:00.276Z,0
2022-10-19T20:25:00.406Z,0
2022-10-19T20:30:00.329Z,0
2022-10-19T20:35:00.337Z,0
2022-10-19T20:40:01.529Z,0
2022-10-19T20:45:00.278Z,0
2022-10-19T20:50:00.491Z,0
2022-10-19T20:55:00.326Z,0
2022-10-19T21:00:00.341Z,0
2022-10-19T21:05:00.320Z,0
2022-10-19T21:10:00.359Z,0
2022-10-19T21:15:00.319Z,0
2022-10-19T21:20:00.257Z,0
2022-10-19T21:25:00.396Z,0
2022-10-19T21:30:00.285Z,0
2022-10-19T21:35:00.252Z,0
2022-10-19T21:40:00.270Z,0
2022-10-19T21:45:25.223Z,0
2022-10-19T21:50:00.334Z,0
2022-10-19T21:55:00.287Z,0
2022-10-19T22:00:00.404Z,0
2022-10-19T22:05:00.573Z,0
2022-10-19T22:10:00.252Z,0
2022-10-19T22:15:00.311Z,0
2022-10-19T22:20:00.254Z,0
2022-10-19T22:25:00.253Z,0
2022-10-19T22:30:00.268Z,0
2022-10-19T22:35:00.258Z,0
2022-10-19T22:40:00.342Z,0
2022-10-19T22:45:00.295Z,0
2022-10-19T22:50:02.963Z,0
2022-10-19T22:55:00.751Z,0
2022-10-19T23:00:00.426Z,0
2022-10-19T23:05:00.267Z,0
2022-10-19T23:10:00.283Z,0
2022-10-19T23:15:00.265Z,0
2022-10-19T23:20:00.264Z,0
2022-10-19T23:25:00.274Z,0
2022-10-19T23:30:00.257Z,0
2022-10-19T23:35:00.290Z,0
2022-10-19T23:40:00.291Z,0
2022-10-19T23:45:00.261Z,0
2022-10-19T23:50:00.254Z,0
2022-10-19T23:55:00.637Z,0
